Time;durP1;ratioP1;P1;durP2;ratioP2;P2;SDS_P1;SDS_P2;PMS_P1;PMS_P2;Temp;Humidity;BMP_temperature;BMP_pressure;BME280_temperature;BME280_humidity;BME280_pressure;Samples;Min_cycle;Max_cycle;Signal;HPM_P1;HPM_P2
2024/01/18 00:00:27;;;;;;;8.52;2.72;;;;;;;-11.43;64.22;99846.59;6274687;22;20290;-60
2024/01/18 00:02:53;;;;;;;10.05;3.20;;;;;;;-11.46;64.19;99831.06;6275706;22;20039;-64
2024/01/18 00:05:18;;;;;;;5.68;2.92;;;;;;;-11.45;64.29;99839.66;6274825;22;20340;-63
2024/01/18 00:07:44;;;;;;;8.20;3.17;;;;;;;-11.45;64.33;99845.72;6277223;22;20355;-62
2024/01/18 00:10:10;;;;;;;8.00;3.25;;;;;;;-11.54;64.17;99837.88;6276525;22;20003;-61
2024/01/18 00:12:37;;;;;;;7.88;3.55;;;;;;;-11.51;64.32;99852.53;6277172;22;20007;-61
2024/01/18 00:15:03;;;;;;;8.27;3.92;;;;;;;-11.90;64.21;99792.75;6276732;22;20078;-63
2024/01/18 00:17:30;;;;;;;8.85;3.35;;;;;;;-11.56;64.48;99849.94;6276731;22;20010;-62
2024/01/18 00:19:56;;;;;;;9.55;3.75;;;;;;;-11.59;64.49;99850.75;6276709;22;20079;-64
2024/01/18 00:22:21;;;;;;;8.23;3.47;;;;;;;-11.58;64.87;99856.75;6276749;22;20010;-60
2024/01/18 00:24:47;;;;;;;9.45;3.85;;;;;;;-11.59;64.95;99862.78;6276978;22;20011;-61
2024/01/18 00:27:12;;;;;;;9.52;3.83;;;;;;;-11.83;64.90;99805.75;6276527;22;20385;-61
2024/01/18 00:29:38;;;;;;;6.90;3.60;;;;;;;-11.55;64.79;99843.91;6277380;22;20007;-63
2024/01/18 00:32:04;;;;;;;9.50;3.72;;;;;;;-11.41;64.35;99865.56;6275993;22;20007;-62
2024/01/18 00:34:29;;;;;;;9.52;4.43;;;;;;;-11.42;64.53;99863.81;6276626;22;20057;-60
2024/01/18 00:36:54;;;;;;;7.90;3.42;;;;;;;-11.41;64.39;99864.72;6276895;22;20011;-62
2024/01/18 00:39:21;;;;;;;9.50;3.97;;;;;;;-11.46;64.21;99849.16;6276685;22;20079;-60
2024/01/18 00:41:50;;;;;;;9.35;4.07;;;;;;;-11.42;63.93;99843.16;6275199;22;20364;-62
2024/01/18 00:44:16;;;;;;;8.35;3.55;;;;;;;-11.48;63.96;99850.84;6276896;22;20014;-62
2024/01/18 00:46:42;;;;;;;8.25;3.83;;;;;;;-11.57;64.03;99833.53;6276857;22;20003;-62
2024/01/18 00:49:07;;;;;;;8.85;4.45;;;;;;;-11.55;64.33;99851.66;6276925;22;20003;-63
2024/01/18 00:51:33;;;;;;;7.47;3.78;;;;;;;-11.56;64.09;99848.19;6276840;22;19999;-61
2024/01/18 00:53:58;;;;;;;8.25;3.65;;;;;;;-11.86;64.22;99804.84;6276436;22;20407;-61
2024/01/18 00:56:24;;;;;;;9.10;4.07;;;;;;;-11.72;64.19;99836.84;6275180;22;20214;-62
2024/01/18 00:58:49;;;;;;;10.90;4.13;;;;;;;-11.58;64.42;99872.28;6276409;22;20034;-60
2024/01/18 01:01:16;;;;;;;9.40;4.00;;;;;;;-11.55;64.28;99880.06;6276732;22;20007;-62
2024/01/18 01:03:42;;;;;;;8.40;4.10;;;;;;;-11.58;64.37;99869.69;6275037;22;20012;-62
2024/01/18 01:06:11;;;;;;;9.20;4.18;;;;;;;-11.53;64.19;99870.63;6275655;22;20039;-60
2024/01/18 01:08:37;;;;;;;8.65;3.75;;;;;;;-11.58;64.07;99880.91;6276476;22;20029;-59
2024/01/18 01:11:08;;;;;;;9.48;4.05;;;;;;;-11.62;64.17;99880.84;6276194;22;20429;-61
2024/01/18 01:13:34;;;;;;;9.70;3.88;;;;;;;-11.69;64.19;99883.38;6276325;22;20007;-62
2024/01/18 01:16:00;;;;;;;9.00;3.67;;;;;;;-11.66;64.49;99892.00;6276504;22;20000;-62
2024/01/18 01:18:25;;;;;;;8.00;3.92;;;;;;;-11.70;64.65;99884.22;6276337;22;20004;-62
2024/01/18 01:20:51;;;;;;;9.90;4.00;;;;;;;-11.72;64.62;99898.84;6276471;22;20253;-60
2024/01/18 01:23:16;;;;;;;10.82;4.15;;;;;;;-11.76;64.42;99889.31;6276382;22;20074;-62
2024/01/18 01:25:42;;;;;;;8.07;3.88;;;;;;;-12.00;64.16;99851.16;6276706;22;20007;-63
2024/01/18 01:28:07;;;;;;;11.30;4.30;;;;;;;-11.78;64.62;99891.03;6277079;22;20340;-63
2024/01/18 01:30:33;;;;;;;9.13;4.32;;;;;;;-11.77;64.27;99903.09;6275359;22;20003;-62
2024/01/18 01:32:59;;;;;;;10.88;4.70;;;;;;;-11.75;64.33;99910.84;6276128;22;20003;-63
2024/01/18 01:35:24;;;;;;;10.13;4.28;;;;;;;-11.74;64.55;99915.16;6276141;22;20137;-63
2024/01/18 01:37:49;;;;;;;12.30;4.45;;;;;;;-11.71;64.58;99913.47;6276546;22;20084;-61
2024/01/18 01:40:16;;;;;;;10.43;4.50;;;;;;;-11.69;64.36;99911.78;6276035;22;20033;-59
2024/01/18 01:42:42;;;;;;;6.93;3.83;;;;;;;-11.62;63.87;99909.25;6276182;22;20019;-63
2024/01/18 01:45:07;;;;;;;10.55;4.20;;;;;;;-11.69;64.10;99906.63;6276096;22;20015;-61
2024/01/18 01:47:33;;;;;;;9.45;4.05;;;;;;;-11.70;64.16;99916.91;6276567;22;20000;-63
2024/01/18 01:50:00;;;;;;;7.45;3.95;;;;;;;-11.73;64.15;99907.44;6276221;22;19996;-62
2024/01/18 01:52:27;;;;;;;7.57;3.75;;;;;;;-11.74;64.21;99892.78;6276165;22;20300;-62
2024/01/18 01:54:53;;;;;;;11.40;4.18;;;;;;;-11.78;64.27;99903.94;6274432;22;20499;-62
2024/01/18 01:57:20;;;;;;;9.52;4.35;;;;;;;-12.13;64.50;99847.59;6276206;22;20035;-62
2024/01/18 01:59:47;;;;;;;12.52;4.65;;;;;;;-11.84;64.25;99901.25;6275805;22;20396;-63
2024/01/18 02:02:13;;;;;;;9.38;4.25;;;;;;;-11.88;64.23;99896.91;6276192;22;20003;-62
2024/01/18 02:04:39;;;;;;;8.65;3.92;;;;;;;-11.90;64.46;99903.78;6276358;22;20053;-59
2024/01/18 02:07:05;;;;;;;9.85;4.65;;;;;;;-11.95;64.50;99908.03;6276126;22;20004;-60
2024/01/18 02:09:32;;;;;;;9.77;4.10;;;;;;;-11.96;64.58;99901.97;6274751;22;20008;-59
2024/01/18 02:11:59;;;;;;;9.85;4.03;;;;;;;-11.99;64.57;99907.13;6275817;22;20049;-63
2024/01/18 02:14:27;;;;;;;15.05;4.40;;;;;;;-11.97;64.57;99892.50;6275478;22;20293;-60
2024/01/18 02:16:52;;;;;;;12.60;4.75;;;;;;;-11.99;64.74;99895.09;6275768;22;20000;-62
2024/01/18 02:19:18;;;;;;;13.80;4.75;;;;;;;-12.04;65.00;99894.19;6275985;22;20003;-61
2024/01/18 02:21:43;;;;;;;8.30;4.22;;;;;;;-12.04;64.91;99899.38;6275927;22;20086;-61
2024/01/18 02:24:19;;;;;;;11.45;4.88;;;;;;;-12.01;65.37;99894.22;6278017;22;19996;-60
2024/01/18 02:26:45;;;;;;;11.55;4.78;;;;;;;-12.06;65.00;99890.69;6278054;22;20351;-62
2024/01/18 02:29:10;;;;;;;13.65;4.60;;;;;;;-12.18;65.12;99881.09;6277195;22;20008;-63
2024/01/18 02:31:36;;;;;;;9.18;4.53;;;;;;;-12.09;65.23;99884.66;6277863;22;20103;-61
2024/01/18 02:34:07;;;;;;;13.23;4.47;;;;;;;-12.10;64.86;99907.00;6278105;22;20368;-63
2024/01/18 02:36:34;;;;;;;9.85;5.10;;;;;;;-12.52;65.16;99825.63;6277712;22;20068;-62
2024/01/18 02:38:59;;;;;;;11.70;4.63;;;;;;;-12.16;65.23;99889.75;6278048;22;20000;-63
2024/01/18 02:41:26;;;;;;;11.50;5.15;;;;;;;-12.15;65.31;99904.38;6277941;22;20404;-62
2024/01/18 02:43:52;;;;;;;9.32;4.70;;;;;;;-12.17;64.95;99898.34;6277574;22;20027;-61
2024/01/18 02:46:18;;;;;;;10.93;4.40;;;;;;;-12.11;64.67;99889.78;6277777;22;20008;-63
2024/01/18 02:48:44;;;;;;;12.05;4.90;;;;;;;-12.18;64.88;99891.41;6277096;22;20000;-61
2024/01/18 02:51:10;;;;;;;11.00;4.90;;;;;;;-12.20;64.83;99903.44;6277783;22;20073;-64
2024/01/18 02:53:35;;;;;;;14.45;5.13;;;;;;;-12.22;65.10;99899.97;6277459;22;20003;-61
2024/01/18 02:56:01;;;;;;;9.68;4.18;;;;;;;-12.26;64.80;99881.03;6277842;22;20083;-63
2024/01/18 02:58:26;;;;;;;8.13;4.00;;;;;;;-12.18;64.88;99893.16;6250799;22;20401;-63
2024/01/18 03:00:52;;;;;;;10.85;4.60;;;;;;;-12.18;64.69;99893.16;6277385;22;20393;-58
2024/01/18 03:03:19;;;;;;;9.88;4.40;;;;;;;-12.20;64.74;99898.28;6277591;22;20000;-62
2024/01/18 03:05:45;;;;;;;9.00;4.32;;;;;;;-12.30;65.30;99876.63;6277927;22;20416;-61
2024/01/18 03:08:10;;;;;;;10.55;4.50;;;;;;;-12.18;65.10;99886.25;6277214;22;20014;-64
2024/01/18 03:10:36;;;;;;;10.07;4.85;;;;;;;-12.20;65.10;99882.78;6277215;22;20091;-62
2024/01/18 03:13:01;;;;;;;10.32;4.60;;;;;;;-12.19;65.41;99888.84;6277662;22;19999;-64
2024/01/18 03:15:27;;;;;;;11.23;4.32;;;;;;;-12.17;65.34;99877.69;6277321;22;20289;-60
2024/01/18 03:17:52;;;;;;;11.82;4.55;;;;;;;-12.10;64.83;99888.94;6277509;22;20003;-58
2024/01/18 03:20:17;;;;;;;9.35;4.40;;;;;;;-12.05;65.14;99881.25;6277358;22;20010;-60
2024/01/18 03:22:43;;;;;;;9.85;4.35;;;;;;;-12.02;64.80;99882.19;6278458;22;20000;-56
2024/01/18 03:25:09;;;;;;;10.68;4.28;;;;;;;-11.97;64.67;99875.31;6278213;22;20078;-57
2024/01/18 03:27:34;;;;;;;11.68;4.57;;;;;;;-11.98;64.79;99883.03;6277584;22;20023;-61
2024/01/18 03:30:00;;;;;;;11.15;4.50;;;;;;;-11.96;64.68;99876.16;6276506;22;20444;-60
2024/01/18 03:32:26;;;;;;;11.98;4.30;;;;;;;-11.91;64.89;99873.66;6277221;22;20062;-60
2024/01/18 03:34:51;;;;;;;11.20;4.50;;;;;;;-11.90;64.87;99873.69;6277020;22;20078;-63
2024/01/18 03:37:17;;;;;;;12.23;5.03;;;;;;;-11.84;64.61;99875.44;6277375;22;20084;-63
2024/01/18 03:39:43;;;;;;;9.30;4.70;;;;;;;-11.84;64.87;99888.34;6277014;22;20332;-63
2024/01/18 03:42:09;;;;;;;11.13;4.85;;;;;;;-12.19;64.40;99812.25;6276718;22;20077;-60
2024/01/18 03:44:37;;;;;;;9.57;4.05;;;;;;;-11.69;64.13;99873.03;6277034;22;20023;-64
2024/01/18 03:47:03;;;;;;;8.95;3.88;;;;;;;-11.74;64.03;99879.88;6277263;22;20085;-71
2024/01/18 03:49:28;;;;;;;8.18;4.38;;;;;;;-11.61;63.39;99865.38;6277116;22;20417;-65
2024/01/18 03:51:54;;;;;;;10.40;4.88;;;;;;;-11.65;63.25;99866.19;6277320;22;20007;-64
2024/01/18 03:54:20;;;;;;;12.23;4.65;;;;;;;-11.74;63.93;99869.53;6277484;22;20010;-65
2024/01/18 03:56:45;;;;;;;12.27;5.00;;;;;;;-11.78;64.28;99880.69;6276527;22;20086;-63
2024/01/18 03:59:14;;;;;;;11.25;4.97;;;;;;;-11.74;64.12;99881.56;6276852;22;20121;-63
2024/01/18 04:01:40;;;;;;;11.57;4.60;;;;;;;-11.97;64.08;99836.59;6277098;22;20030;-64
2024/01/18 04:04:05;;;;;;;14.23;5.30;;;;;;;-11.75;64.16;99864.34;6277179;22;20288;-64
2024/01/18 04:06:31;;;;;;;12.27;5.40;;;;;;;-11.85;63.99;99827.22;6276307;22;20012;-64
2024/01/18 04:08:57;;;;;;;14.70;5.20;;;;;;;-11.74;63.42;99856.63;6276068;22;20002;-64
2024/01/18 04:11:22;;;;;;;13.43;5.85;;;;;;;-11.78;64.06;99854.00;6276377;22;19999;-64
2024/01/18 04:13:48;;;;;;;13.55;5.53;;;;;;;-12.14;63.79;99804.56;6276980;22;20061;-65
2024/01/18 04:16:13;;;;;;;17.20;6.90;;;;;;;-11.73;63.67;99860.06;6277091;22;20035;-65
2024/01/18 04:18:39;;;;;;;17.92;7.05;;;;;;;-11.98;63.49;99800.41;6276969;22;20378;-64
2024/01/18 04:21:04;;;;;;;18.60;6.85;;;;;;;-11.72;63.38;99839.44;6277499;22;20011;-65
2024/01/18 04:23:30;;;;;;;15.10;6.25;;;;;;;-11.75;63.48;99847.16;6277087;22;20000;-64
2024/01/18 04:25:56;;;;;;;16.92;5.95;;;;;;;-11.84;63.48;99845.34;6276853;22;20078;-64
2024/01/18 04:28:21;;;;;;;13.52;5.88;;;;;;;-11.80;63.90;99846.25;6277389;22;19995;-65
2024/01/18 04:30:48;;;;;;;17.83;6.63;;;;;;;-11.78;63.42;99847.13;6277487;22;20008;-64
2024/01/18 04:33:13;;;;;;;16.05;6.07;;;;;;;-11.78;63.69;99841.97;6276863;22;20011;-66
2024/01/18 04:35:39;;;;;;;14.10;6.20;;;;;;;-11.70;63.24;99842.88;6277067;22;20098;-65
2024/01/18 04:38:06;;;;;;;15.38;6.15;;;;;;;-11.73;63.41;99847.16;6276313;22;20043;-65
2024/01/18 04:40:33;;;;;;;11.05;5.57;;;;;;;-11.73;63.13;99841.97;6276501;22;20103;-64
2024/01/18 04:42:59;;;;;;;10.85;4.80;;;;;;;-11.71;63.02;99845.44;6275863;22;20397;-64
2024/01/18 04:45:24;;;;;;;10.68;4.78;;;;;;;-11.71;63.04;99835.13;6276164;22;20038;-64
2024/01/18 04:47:52;;;;;;;10.70;4.82;;;;;;;-11.67;62.96;99823.97;6276795;22;20031;-63
2024/01/18 04:50:20;;;;;;;9.73;4.93;;;;;;;-11.62;63.09;99827.47;6276395;22;20003;-64
2024/01/18 04:52:47;;;;;;;9.73;4.78;;;;;;;-11.62;62.94;99829.19;6276637;22;20008;-63
2024/01/18 04:55:13;;;;;;;8.50;4.10;;;;;;;-11.59;62.34;99824.91;6276761;22;20118;-65
2024/01/18 04:57:39;;;;;;;9.35;4.22;;;;;;;-11.64;62.73;99816.25;6276313;22;20039;-63
2024/01/18 05:00:15;;;;;;;10.25;3.65;;;;;;;-11.56;62.73;99824.09;6276738;22;20419;-62
2024/01/18 05:02:41;;;;;;;9.80;4.43;;;;;;;-11.62;62.37;99795.59;6276978;22;20400;-63
2024/01/18 05:05:10;;;;;;;9.98;4.60;;;;;;;-11.50;62.41;99815.50;6276428;22;20008;-64
2024/01/18 05:07:42;;;;;;;6.82;3.70;;;;;;;-11.77;62.45;99757.56;6276692;22;20031;-62
2024/01/18 05:10:09;;;;;;;6.72;3.33;;;;;;;-11.40;62.68;99797.50;6275135;22;20403;-64
2024/01/18 05:12:35;;;;;;;10.73;4.60;;;;;;;-11.53;62.44;99772.44;6276639;22;20288;-64
2024/01/18 05:15:01;;;;;;;12.80;4.72;;;;;;;-11.36;62.52;99779.44;6276583;22;19999;-63
2024/01/18 05:17:37;;;;;;;9.93;4.40;;;;;;;-11.28;62.46;99775.22;6248909;22;20004;-64
2024/01/18 05:20:07;;;;;;;10.05;4.30;;;;;;;-11.29;62.86;99764.00;6276605;22;19995;-65
2024/01/18 05:22:33;;;;;;;5.60;2.40;;;;;;;-11.02;62.40;99779.72;6276604;22;20007;-66
2024/01/18 05:24:59;;;;;;;11.68;5.05;;;;;;;-11.11;62.63;99765.00;6276127;22;20087;-64
2024/01/18 05:27:27;;;;;;;10.70;4.57;;;;;;;-11.08;62.88;99759.00;6276416;22;20062;-64
2024/01/18 05:29:53;;;;;;;14.60;5.18;;;;;;;-10.98;62.60;99750.41;6276964;22;20385;-64
2024/01/18 05:32:21;;;;;;;12.98;5.10;;;;;;;-11.18;62.28;99719.28;6276052;22;20006;-64
2024/01/18 05:34:50;;;;;;;14.10;5.30;;;;;;;-10.83;62.49;99771.22;6276010;22;19999;-63
2024/01/18 05:37:17;;;;;;;15.55;6.53;;;;;;;-10.68;61.82;99785.06;6275927;22;20003;-64
2024/01/18 05:39:42;;;;;;;14.68;5.78;;;;;;;-10.73;62.30;99792.81;6276363;22;20035;-63
2024/01/18 05:42:08;;;;;;;15.50;5.45;;;;;;;-10.68;61.59;99772.13;6276289;22;20012;-65
2024/01/18 05:44:34;;;;;;;13.45;5.80;;;;;;;-10.56;61.21;99772.19;6276030;22;20008;-64
2024/01/18 05:47:00;;;;;;;18.17;5.72;;;;;;;-10.54;61.25;99783.41;6276217;22;20000;-63
2024/01/18 05:49:25;;;;;;;16.08;6.20;;;;;;;-10.55;60.85;99766.16;6276776;22;20003;-64
2024/01/18 05:51:51;;;;;;;19.88;6.07;;;;;;;-10.58;60.46;99740.28;6276092;22;20385;-65
2024/01/18 05:54:17;;;;;;;17.38;6.50;;;;;;;-10.57;60.79;99762.72;6275846;22;20011;-64
2024/01/18 05:56:43;;;;;;;17.40;6.28;;;;;;;-10.68;60.94;99734.19;6275664;22;20383;-64
2024/01/18 05:59:08;;;;;;;13.23;5.55;;;;;;;-10.67;60.83;99735.03;6276243;22;20075;-63
2024/01/18 06:01:34;;;;;;;13.27;5.80;;;;;;;-10.87;61.14;99694.44;6275913;22;20050;-64
2024/01/18 06:04:00;;;;;;;15.27;5.25;;;;;;;-10.51;60.96;99735.13;6274469;22;20004;-65
2024/01/18 06:06:25;;;;;;;14.75;5.50;;;;;;;-10.49;61.05;99734.25;6275606;22;20061;-64
2024/01/18 06:08:51;;;;;;;17.17;5.47;;;;;;;-10.45;60.65;99730.84;6275844;22;20073;-66
2024/01/18 06:11:18;;;;;;;16.02;5.28;;;;;;;-10.44;60.30;99719.63;6275752;22;20015;-64
2024/01/18 06:13:44;;;;;;;15.20;5.05;;;;;;;-10.38;59.94;99729.06;6275994;22;20000;-64
2024/01/18 06:16:10;;;;;;;15.07;5.22;;;;;;;-10.44;60.12;99729.09;6275986;22;20026;-64
2024/01/18 06:18:42;;;;;;;10.70;4.70;;;;;;;-10.39;59.73;99704.94;6275916;22;20007;-66
2024/01/18 06:21:09;;;;;;;11.18;5.10;;;;;;;-10.50;59.74;99700.63;6275655;22;20008;-64
2024/01/18 06:23:39;;;;;;;10.35;3.90;;;;;;;-10.43;60.13;99681.66;6275763;22;20368;-65
2024/01/18 06:26:10;;;;;;;11.25;5.03;;;;;;;-10.34;60.12;99686.84;6275967;22;20404;-63
2024/01/18 06:28:35;;;;;;;15.45;4.90;;;;;;;-10.42;59.69;99666.13;6275724;22;20007;-64
2024/01/18 06:31:02;;;;;;;10.00;3.47;;;;;;;-10.17;59.58;99665.28;6275979;22;20015;-64
2024/01/18 06:33:27;;;;;;;10.20;4.13;;;;;;;-9.99;58.83;99656.69;6274642;22;20026;-64
2024/01/18 06:35:53;;;;;;;9.50;4.60;;;;;;;-10.16;59.48;99647.16;6275830;22;20393;-65
2024/01/18 06:38:22;;;;;;;11.20;4.18;;;;;;;-10.03;58.97;99645.44;6276149;22;20210;-64
2024/01/18 06:40:48;;;;;;;11.40;3.63;;;;;;;-9.92;58.96;99657.50;6275523;22;20110;-63
2024/01/18 06:43:17;;;;;;;9.48;3.83;;;;;;;-9.84;58.73;99641.13;6275492;22;20047;-64
2024/01/18 06:45:43;;;;;;;8.88;3.63;;;;;;;-9.78;58.70;99639.38;6276056;22;20004;-63
2024/01/18 06:48:09;;;;;;;6.53;3.72;;;;;;;-9.75;58.31;99642.84;6275841;22;20334;-65
2024/01/18 06:50:37;;;;;;;15.13;4.50;;;;;;;-9.76;58.75;99646.28;6275588;22;20095;-65
2024/01/18 06:53:03;;;;;;;8.38;3.85;;;;;;;-9.73;59.04;99645.44;6275666;22;20008;-65
2024/01/18 06:55:29;;;;;;;11.05;3.90;;;;;;;-9.64;58.79;99629.00;6276423;22;20000;-64
2024/01/18 06:57:55;;;;;;;12.13;4.03;;;;;;;-9.61;58.66;99627.28;6276122;22;19999;-65
2024/01/18 07:00:24;;;;;;;5.32;2.28;;;;;;;-9.35;57.63;99635.88;6275399;22;20011;-65
2024/01/18 07:02:52;;;;;;;9.32;3.40;;;;;;;-9.30;57.02;99610.78;6276106;22;20003;-65
2024/01/18 07:05:18;;;;;;;15.48;4.45;;;;;;;-9.41;57.04;99603.88;6274675;22;20000;-63
2024/01/18 07:07:44;;;;;;;8.05;4.05;;;;;;;-9.38;57.16;99614.28;6275403;22;20000;-64
2024/01/18 07:10:10;;;;;;;10.13;3.90;;;;;;;-9.24;56.64;99606.47;6276433;22;20409;-64
2024/01/18 07:12:36;;;;;;;8.25;3.20;;;;;;;-9.38;56.44;99557.25;6277400;22;20401;-65
2024/01/18 07:15:01;;;;;;;8.88;3.97;;;;;;;-9.49;56.16;99540.84;6276743;22;20091;-66
2024/01/18 07:17:28;;;;;;;11.63;4.35;;;;;;;-9.13;56.15;99588.25;6276766;22;20007;-65
2024/01/18 07:19:56;;;;;;;14.23;4.65;;;;;;;-9.01;55.92;99586.47;6277170;22;20399;-64
2024/01/18 07:22:25;;;;;;;15.80;4.97;;;;;;;-8.88;55.38;99588.16;6277536;22;20567;-64
2024/01/18 07:24:52;;;;;;;12.05;4.55;;;;;;;-9.00;54.67;99547.56;6277041;22;20528;-64
2024/01/18 07:27:17;;;;;;;13.40;5.60;;;;;;;-8.76;55.08;99587.22;6277703;22;19996;-65
2024/01/18 07:29:43;;;;;;;13.55;6.10;;;;;;;-8.78;55.12;99590.69;6277747;22;20309;-65
2024/01/18 07:32:09;;;;;;;19.52;5.93;;;;;;;-9.00;54.60;99533.72;6277200;22;20006;-65
2024/01/18 07:34:35;;;;;;;12.75;5.57;;;;;;;-8.51;53.81;99587.06;6276596;22;20011;-63
2024/01/18 07:37:01;;;;;;;16.20;6.63;;;;;;;-8.63;54.40;99593.19;6277986;22;20070;-65
2024/01/18 07:39:30;;;;;;;21.60;7.72;;;;;;;-8.78;53.67;99562.13;6277511;22;20404;-65
2024/01/18 07:41:56;;;;;;;18.88;7.25;;;;;;;-8.56;54.20;99587.09;6276943;22;20030;-65
2024/01/18 07:44:21;;;;;;;15.88;7.03;;;;;;;-8.77;54.01;99543.09;6277511;22;20012;-65
2024/01/18 07:46:47;;;;;;;12.68;5.85;;;;;;;-8.42;53.86;99584.38;6277162;22;20388;-63
2024/01/18 07:49:12;;;;;;;13.60;6.05;;;;;;;-8.34;53.05;99589.50;6277062;22;20042;-63
2024/01/18 07:51:38;;;;;;;14.85;5.30;;;;;;;-8.26;53.38;99611.09;6275747;22;20000;-64
2024/01/18 07:54:04;;;;;;;15.25;6.60;;;;;;;-8.22;53.35;99612.78;6274421;22;20003;-66
2024/01/18 07:56:30;;;;;;;11.50;5.45;;;;;;;-8.11;52.79;99606.66;6277125;22;20462;-65
2024/01/18 07:58:56;;;;;;;13.15;5.72;;;;;;;-8.02;52.51;99609.16;6250143;22;20004;-65
2024/01/18 08:01:21;;;;;;;10.45;5.15;;;;;;;-8.04;51.82;99603.13;6270937;22;20018;-59
2024/01/18 08:03:47;;;;;;;12.10;3.92;;;;;;;-8.03;52.11;99617.84;6274653;22;20073;-59
2024/01/18 08:06:13;;;;;;;9.93;3.92;;;;;;;-8.05;51.69;99601.41;6276091;22;20004;-58
2024/01/18 08:08:40;;;;;;;10.07;3.85;;;;;;;-7.95;51.86;99603.06;6248433;22;20308;-64
2024/01/18 08:11:10;;;;;;;10.45;3.67;;;;;;;-8.39;51.94;99537.59;6276845;22;20098;-58
2024/01/18 08:13:35;;;;;;;6.63;3.33;;;;;;;-7.98;51.85;99589.22;6275142;22;20416;-61
2024/01/18 08:16:01;;;;;;;8.90;3.88;;;;;;;-7.95;51.64;99592.69;6276330;22;20005;-59
2024/01/18 08:18:26;;;;;;;8.27;3.67;;;;;;;-7.97;51.85;99589.19;6274923;22;20014;-62
2024/01/18 08:20:52;;;;;;;10.77;3.72;;;;;;;-7.83;51.53;99593.44;6274879;22;20008;-64
2024/01/18 08:23:18;;;;;;;10.02;3.25;;;;;;;-7.81;51.86;99594.28;6275393;22;20012;-62
2024/01/18 08:25:44;;;;;;;7.60;3.63;;;;;;;-7.80;51.17;99583.00;6275978;22;20010;-59
2024/01/18 08:28:13;;;;;;;7.18;3.70;;;;;;;-7.79;51.58;99587.31;6274719;22;20397;-62
2024/01/18 08:30:40;;;;;;;7.45;4.05;;;;;;;-7.71;51.66;99572.53;6276064;22;20091;-60
2024/01/18 08:33:07;;;;;;;9.65;3.30;;;;;;;-7.66;51.38;99575.94;6276083;22;20008;-55
2024/01/18 08:35:34;;;;;;;7.75;3.67;;;;;;;-7.63;50.37;99590.63;6271003;22;20032;-65
2024/01/18 08:38:00;;;;;;;9.57;3.63;;;;;;;-7.67;50.18;99575.94;6274240;22;20000;-62
2024/01/18 08:40:26;;;;;;;7.75;3.60;;;;;;;-7.72;50.45;99555.19;6274276;22;20047;-60
2024/01/18 08:42:52;;;;;;;18.02;3.80;;;;;;;-7.87;50.06;99538.00;6275581;22;20313;-58
2024/01/18 08:45:18;;;;;;;8.27;3.60;;;;;;;-7.89;50.37;99536.31;6275316;22;20011;-60
2024/01/18 08:47:44;;;;;;;5.50;2.88;;;;;;;-7.81;50.31;99550.97;6275601;22;20076;-63
2024/01/18 08:50:10;;;;;;;8.77;3.78;;;;;;;-7.86;50.67;99515.50;6276016;22;20008;-59
2024/01/18 08:52:36;;;;;;;7.65;3.28;;;;;;;-7.97;50.52;99459.28;6275801;22;20069;-62
2024/01/18 08:55:02;;;;;;;8.13;3.35;;;;;;;-7.88;50.84;99499.91;6276175;22;20010;-63
2024/01/18 08:57:31;;;;;;;8.40;3.38;;;;;;;-7.81;50.61;99482.50;6275390;22;19999;-60
2024/01/18 08:59:56;;;;;;;7.60;3.67;;;;;;;-7.83;50.31;99473.88;6274825;22;20471;-59
2024/01/18 09:02:22;;;;;;;6.75;3.30;;;;;;;-7.84;50.83;99460.00;6275597;22;20004;-60
2024/01/18 09:04:47;;;;;;;7.88;3.75;;;;;;;-7.58;49.72;99460.59;6275624;22;20018;-60
2024/01/18 09:07:13;;;;;;;10.75;3.20;;;;;;;-7.70;50.71;99462.47;6275024;22;20070;-59
2024/01/18 09:09:38;;;;;;;8.75;4.07;;;;;;;-7.69;50.73;99464.19;6274739;22;20385;-58
2024/01/18 09:12:04;;;;;;;6.90;3.38;;;;;;;-7.69;49.99;99430.41;6275588;22;20000;-60
2024/01/18 09:14:30;;;;;;;10.23;3.50;;;;;;;-7.67;50.50;99441.63;6275243;22;20000;-57
2024/01/18 09:16:55;;;;;;;6.45;2.75;;;;;;;-7.43;50.20;99425.72;6275199;22;20016;-60
2024/01/18 09:19:21;;;;;;;11.40;3.88;;;;;;;-7.57;50.09;99420.69;6275329;22;20004;-62
2024/01/18 09:21:46;;;;;;;9.63;3.67;;;;;;;-7.68;50.94;99389.66;6271685;22;20076;-61
2024/01/18 09:24:13;;;;;;;8.90;3.30;;;;;;;-7.56;50.16;99384.31;6272539;22;20026;-63
2024/01/18 09:26:38;;;;;;;8.57;3.40;;;;;;;-7.84;50.66;99329.22;6272455;22;20023;-58
2024/01/18 09:29:04;;;;;;;5.97;2.10;;;;;;;-7.42;49.84;99342.50;6275474;22;20385;-60
2024/01/18 09:31:29;;;;;;;7.65;2.47;;;;;;;-7.54;50.10;99333.13;6273581;22;20277;-60
2024/01/18 09:33:55;;;;;;;5.65;3.22;;;;;;;-7.71;50.35;99337.69;6274963;22;20018;-58
2024/01/18 09:36:20;;;;;;;6.95;3.13;;;;;;;-7.66;50.99;99328.09;6275544;22;19996;-62
2024/01/18 09:38:46;;;;;;;8.40;2.72;;;;;;;-7.56;50.64;99301.09;6274923;22;20012;-62
2024/01/18 09:41:16;;;;;;;10.00;4.03;;;;;;;-7.56;50.53;99315.81;6275335;22;20347;-62
2024/01/18 09:43:42;;;;;;;7.05;3.40;;;;;;;-7.61;50.39;99273.44;6275728;22;20019;-63
2024/01/18 09:46:11;;;;;;;7.18;3.33;;;;;;;-7.59;50.55;99274.28;6275549;22;20011;-61
2024/01/18 09:48:37;;;;;;;7.82;3.60;;;;;;;-7.68;50.96;99281.34;6275599;22;20004;-62
2024/01/18 09:51:06;;;;;;;5.22;2.17;;;;;;;-7.50;50.93;99281.91;6275136;22;20083;-65
2024/01/18 09:53:32;;;;;;;9.30;3.45;;;;;;;-7.55;50.52;99262.94;6274638;22;20384;-61
2024/01/18 09:56:18;;;;;;;5.05;2.45;;;;;;;-7.43;50.60;99262.75;6274640;22;19999;-62
2024/01/18 09:58:43;;;;;;;7.30;2.60;;;;;;;-7.26;49.61;99256.41;6275067;22;20004;-64
2024/01/18 10:01:18;;;;;;;8.68;3.17;;;;;;;-7.39;50.32;99228.00;6275005;22;20073;-64
2024/01/18 10:03:44;;;;;;;7.95;2.83;;;;;;;-7.39;50.02;99248.81;6273235;22;20010;-59
2024/01/18 10:06:09;;;;;;;5.88;2.70;;;;;;;-7.55;50.11;99232.59;6274414;22;20095;-62
2024/01/18 10:08:35;;;;;;;5.65;2.65;;;;;;;-7.44;50.19;99218.56;6275113;22;20230;-61
2024/01/18 10:11:00;;;;;;;4.60;1.95;;;;;;;-7.32;49.90;99226.16;6275448;22;20003;-61
2024/01/18 10:13:26;;;;;;;5.93;3.00;;;;;;;-7.69;50.38;99199.03;6275307;22;20381;-58
2024/01/18 10:15:52;;;;;;;2.75;1.65;;;;;;;-7.50;50.42;99199.59;6273187;22;20098;-65
2024/01/18 10:18:18;;;;;;;4.75;2.40;;;;;;;-7.70;50.78;99186.06;6272715;22;20584;-66
2024/01/18 10:20:46;;;;;;;4.30;2.08;;;;;;;-7.72;50.27;99167.03;6273124;22;20008;-64
2024/01/18 10:23:12;;;;;;;4.72;2.50;;;;;;;-8.02;50.44;99133.72;6273013;22;20054;-65
2024/01/18 10:25:39;;;;;;;8.02;2.17;;;;;;;-8.09;50.46;99111.31;6272036;22;20008;-62
2024/01/18 10:28:05;;;;;;;7.35;3.13;;;;;;;-7.83;50.52;99149.88;6273292;22;20026;-65
2024/01/18 10:30:32;;;;;;;4.80;1.95;;;;;;;-7.83;50.42;99133.41;6273119;22;20040;-64
2024/01/18 10:33:00;;;;;;;4.50;2.38;;;;;;;-7.82;50.73;99148.13;6273964;22;20035;-66
2024/01/18 10:35:28;;;;;;;6.80;3.53;;;;;;;-8.05;51.11;99117.34;6275368;22;20317;-64
2024/01/18 10:38:04;;;;;;;7.80;2.88;;;;;;;-7.82;50.74;99140.34;6275609;22;20089;-64
2024/01/18 10:40:33;;;;;;;4.80;2.75;;;;;;;-7.80;50.24;99109.97;6273147;22;20036;-64
2024/01/18 10:43:00;;;;;;;7.55;2.92;;;;;;;-7.82;50.95;99114.34;6274433;22;20046;-62
2024/01/18 10:45:30;;;;;;;6.70;2.75;;;;;;;-7.56;49.71;99111.31;6277190;22;20016;-62
2024/01/18 10:47:56;;;;;;;9.93;2.40;;;;;;;-7.48;48.73;99111.13;6277206;22;20131;-62
2024/01/18 10:50:23;;;;;;;4.63;2.50;;;;;;;-7.46;48.74;99105.91;6276995;22;20388;-62
2024/01/18 10:52:50;;;;;;;7.05;2.45;;;;;;;-7.89;49.06;99047.78;6277235;22;20014;-61
2024/01/18 10:55:15;;;;;;;6.72;2.35;;;;;;;-7.40;49.04;99085.88;6277016;22;20000;-61
2024/01/18 10:57:41;;;;;;;7.25;2.72;;;;;;;-7.42;48.82;99076.38;6276950;22;20007;-64
2024/01/18 11:00:07;;;;;;;7.43;2.42;;;;;;;-7.38;48.24;99073.69;6276816;22;20038;-61
2024/01/18 11:02:40;;;;;;;6.43;2.50;;;;;;;-7.57;48.72;99070.59;6276743;22;20008;-61
2024/01/18 11:05:09;;;;;;;5.43;2.60;;;;;;;-7.63;49.22;99073.28;6277149;22;20200;-60
2024/01/18 11:07:37;;;;;;;5.00;2.35;;;;;;;-7.53;49.63;99058.38;6276931;22;20031;-62
2024/01/18 11:10:10;;;;;;;5.82;2.33;;;;;;;-7.33;48.20;99015.50;6276679;22;20011;-60
2024/01/18 11:12:41;;;;;;;4.80;1.88;;;;;;;-7.28;48.31;99037.06;6276761;22;20000;-62
2024/01/18 11:15:16;;;;;;;5.60;2.22;;;;;;;-7.44;48.17;99037.41;6277376;22;20095;-62
2024/01/18 11:17:45;;;;;;;5.63;2.47;;;;;;;-7.73;48.26;98960.00;6276773;22;20019;-60
2024/01/18 11:20:12;;;;;;;5.82;2.50;;;;;;;-7.26;48.09;99006.69;6276734;22;20003;-59